Terminal Aerodrome Forecast
Issued by NWS

Home | Current Version | Previous Version | Text Only | Print | Product List | Glossary On
Versions: 1 2 3 4 5 6 7 8 9 10 11 12 13
877
FTUS44 KJAN 220520
TAFGTR
TAF
KGTR 220520Z 2206/2306 12005KT P6SM FEW100 BKN250
     FM220900 13003KT P6SM BKN012
     FM221100 12003KT P6SM OVC007
     FM221400 14004KT P6SM BKN015
     FM221700 05005KT P6SM BKN040
     FM222000 01005KT P6SM VCTS BKN050CB BKN100
     FM230000 04003KT P6SM FEW100 BKN250=

USA.gov is the U.S. government's official web portal to all federal, state and local government web resources and services.